40J

Perry-Foley Airport

Perry, Florida, USA
METAR K40J 201815Z AUTO 10008KT 060V120 10SM CLR 25/13 A3019 RMK AO2 T02470125
Observed Flight Rules
Apr-20 @ 18:15 UTC (22 minutes ago) Visual Flight Rules
Wind Visibility Clouds
100° at 8 knots 10 miles
  • Clear skies
Temperatures Readings
Current 25°C / 77°F
Dewpoint 13°C / 55°F
Humidity 47%
Altimeter 30.19" Hg
Pressure 1022 hPa
Elevation 13
METAR K40J 201815Z AUTO 10008KT 060V120 10SM CLR 25/13 A3019 RMK AO2 T02470125
Observed Flight Rules
Apr-20 @ 18:15 UTC
(22 minutes ago)
VFR
Wind Visibility
100° at 8 knots 10 miles
Clouds
  • Clear skies
Temperature Dewpoint
25°C / 77°F 13°C / 55°F
Humidity Altimeter Pressure
47% 30.19" Hg 1022 hPa